Ekaterina — 9HAH8 — position and weather

sailwx.info

Track history (hours):
 
Tides and Currents Weather Stations Pressure Air Temp Water Temp Dewpoint Dewpoint Depression Visibility Wind Speed Wind Dir Waves Ship Positions

Ekaterina

Last reported at 2017-Nov-25 09:06 UTC. Time now 2017-Dec-12 12:37 UTC.
Position N 37°09' E 004°20'.
Warning: this ship's position is 17 days out of date.

Length 166 m; draft 9 m.

Type: Cargo ship. MMSI: 215776000.

Date/timePositionNaut miles runAvg speedWind from/ knotsBaromVisibWave heightAir tempDewpointWater temp
2017-Nov-25 09:06N 37°09' E 004°20'212.5
2017-Nov-25 08:59N 37°09' E 004°18'1312.6
2017-Nov-25 07:56N 37°09' E 004°01'512.7
2017-Nov-25 07:30N 37°08' E 003°54'612.4
2017-Nov-25 07:00N 37°07' E 003°47'1912.5
2017-Nov-25 05:28N 37°04' E 003°23'812.8
2017-Nov-25 04:51N 37°03' E 003°13'412.8
2017-Nov-25 04:30N 37°02' E 003°08'613.0
2017-Nov-25 04:01N 37°02' E 002°60'612.7
2017-Nov-25 03:30N 37°00' E 002°52'612.2
2017-Nov-25 03:00N 36°59' E 002°44'712.1
2017-Nov-25 02:24N 36°58' E 002°35'611.9
2017-Nov-25 01:56N 36°57' E 002°28'511.9
2017-Nov-25 01:30N 36°57' E 002°22'712.3
2017-Nov-25 00:58N 36°56' E 002°14'612.1
2017-Nov-25 00:30N 36°55' E 002°07'812.2
2017-Nov-24 23:52N 36°53' E 001°57'412.1
2017-Nov-24 23:30N 36°53' E 001°52'612.3
2017-Nov-24 23:00N 36°52' E 001°44'612.1
2017-Nov-24 22:30N 36°50' E 001°37'911.8
2017-Nov-24 21:44N 36°49' E 001°26'311.7
2017-Nov-24 21:30N 36°49' E 001°22'611.7
2017-Nov-24 20:57N 36°48' E 001°14'511.9
2017-Nov-24 20:30N 36°47' E 001°08'1112.2
2017-Nov-24 19:38N 36°45' E 000°55'212.2
2017-Nov-24 19:30N 36°45' E 000°53'612.3
2017-Nov-24 19:00N 36°44' E 000°45'612.2
2017-Nov-24 18:30N 36°43' E 000°38'612.0
2017-Nov-24 18:00N 36°42' E 000°30'612.0
2017-Nov-24 17:30N 36°41' E 000°23'611.7
2017-Nov-24 17:00N 36°40' E 000°16'611.6
2017-Nov-24 16:30N 36°39' E 000°09'611.7
2017-Nov-24 15:58N 36°38' E 000°01'511.8
2017-Nov-24 15:30N 36°37' W 000°06'611.6
2017-Nov-24 15:00N 36°36' W 000°13'1611.7
2017-Nov-24 13:36N 36°34' W 000°33'111.8
2017-Nov-24 13:29N 36°34' W 000°35'611.9
2017-Nov-24 13:00N 36°33' W 000°42'2612.0
2017-Nov-24 10:53N 36°29' W 001°13'511.6
2017-Nov-24 10:27N 36°28' W 001°19'2812.0
2017-Nov-24 08:07N 36°23' W 001°54'16311.8
2017-Nov-23 18:20N 35°59' W 005°13'412.7
2017-Nov-23 18:01N 35°60' W 005°18'10 9.9
2017-Nov-23 17:03N 36°08' W 005°23'0 5.2
2017-Nov-23 17:00N 36°09' W 005°23'0 0.1
2017-Nov-23 12:23N 36°09' W 005°22'4 1.8
2017-Nov-23 10:22N 36°06' W 005°21'2 3.1
2017-Nov-23 09:53N 36°05' W 005°19'0 1.2
2017-Nov-23 09:29N 36°05' W 005°20'4 8.5
2017-Nov-23 08:58N 36°06' W 005°15'5 0.9
2017-Nov-23 02:57N 36°06' W 005°08'3 5.6
2017-Nov-23 02:26N 36°06' W 005°12'410.2
2017-Nov-23 02:00N 36°03' W 005°16'510.3
2017-Nov-23 01:30N 36°00' W 005°21'5 9.7
2017-Nov-23 01:00N 35°58' W 005°27'  
2017-Nov-17 21:24N 49°25' E 001°01'0 0.0
2017-Nov-17 21:00N 49°25' E 001°01'0 0.0
2017-Nov-17 20:30N 49°25' E 001°01'0 0.0
2017-Nov-17 20:00N 49°25' E 001°01'0 0.0
2017-Nov-17 19:29N 49°25' E 001°01'0 0.0
2017-Nov-17 18:59N 49°25' E 001°01'0 0.0
2017-Nov-17 18:29N 49°25' E 001°01'0 0.0
2017-Nov-17 17:58N 49°25' E 001°01'0 0.0
2017-Nov-17 17:28N 49°25' E 001°01'0 0.0
2017-Nov-17 16:58N 49°25' E 001°01'0 0.0
2017-Nov-17 16:30N 49°25' E 001°01'0 0.0
2017-Nov-17 16:00N 49°25' E 001°01'0 0.0
2017-Nov-17 15:30N 49°25' E 001°01'0 0.0
2017-Nov-17 14:59N 49°25' E 001°01'0 0.0
2017-Nov-17 14:29N 49°25' E 001°01'0 0.0
2017-Nov-17 13:59N 49°25' E 001°01'0 0.0
2017-Nov-17 13:29N 49°25' E 001°01'0 0.0
2017-Nov-17 12:58N 49°25' E 001°01'0 0.0
2017-Nov-17 12:25N 49°25' E 001°01'0 0.0
2017-Nov-17 11:55N 49°25' E 001°01'0 0.0
2017-Nov-17 11:30N 49°25' E 001°01'0 0.0
2017-Nov-17 11:00N 49°25' E 001°01'0 0.0
2017-Nov-17 10:30N 49°25' E 001°01'0 0.0
2017-Nov-17 10:00N 49°25' E 001°01'0 0.0
2017-Nov-17 09:29N 49°25' E 001°01'0 0.0
2017-Nov-17 08:59N 49°25' E 001°01'0 0.0
2017-Nov-17 08:26N 49°25' E 001°01'0 0.0
2017-Nov-17 07:58N 49°25' E 001°01'0 0.0
2017-Nov-17 07:28N 49°25' E 001°01'0 0.0
2017-Nov-17 06:58N 49°25' E 001°01'0 0.0
2017-Nov-17 06:30N 49°25' E 001°01'0 0.0
2017-Nov-17 06:00N 49°25' E 001°01'0 0.0
2017-Nov-17 05:30N 49°25' E 001°01'0 0.0
2017-Nov-17 05:00N 49°25' E 001°01'0 0.0
2017-Nov-17 04:29N 49°25' E 001°01'0 0.0
2017-Nov-17 03:59N 49°25' E 001°01'0 0.0
2017-Nov-17 03:29N 49°25' E 001°01'0 0.0
2017-Nov-17 02:58N 49°25' E 001°01'0 0.0
2017-Nov-17 02:28N 49°25' E 001°01'0 0.0
2017-Nov-17 01:58N 49°25' E 001°01'0 0.0
2017-Nov-17 01:30N 49°25' E 001°01'0 0.0
2017-Nov-17 01:00N 49°25' E 001°01'0 0.0
2017-Nov-17 00:30N 49°25' E 001°01'0 0.0
2017-Nov-17 00:00N 49°25' E 001°01'0 0.0
2017-Nov-16 23:29N 49°25' E 001°01'0 0.0
2017-Nov-16 22:59N 49°25' E 001°01'0 0.8
2017-Nov-16 22:30N 49°25' E 001°01'1 1.4
2017-Nov-16 22:00N 49°26' E 001°02'4 7.3
2017-Nov-16 21:30N 49°22' E 000°60'1 1.4
2017-Nov-16 20:58N 49°22' E 000°59'0 0.0
2017-Nov-16 20:28N 49°22' E 000°59'0 0.0
2017-Nov-16 19:58N 49°22' E 000°59'0 0.0
2017-Nov-16 19:30N 49°22' E 000°59'0 0.0
2017-Nov-16 19:00N 49°22' E 000°59'0 0.0
2017-Nov-16 18:28N 49°22' E 000°59'0 0.0
2017-Nov-16 17:58N 49°22' E 000°59'0 0.0
2017-Nov-16 17:28N 49°22' E 000°59'0 0.0
2017-Nov-16 17:00N 49°22' E 000°59'0 0.0
2017-Nov-16 16:27N 49°22' E 000°59'0 0.0
2017-Nov-16 15:57N 49°22' E 000°59'0 0.0
2017-Nov-16 15:26N 49°22' E 000°59'0 0.0
2017-Nov-16 14:59N 49°22' E 000°59'0 0.0
2017-Nov-16 14:29N 49°22' E 000°59'0 0.0
2017-Nov-16 13:59N 49°22' E 000°59'0 0.0
2017-Nov-16 13:28N 49°22' E 000°59'0 0.0
2017-Nov-16 12:58N 49°22' E 000°59'0 0.0
2017-Nov-16 12:28N 49°22' E 000°59'0 0.0
2017-Nov-16 12:00N 49°22' E 000°59'0 0.0
2017-Nov-16 11:30N 49°22' E 000°59'0 0.0
2017-Nov-16 11:00N 49°22' E 000°59'0 0.0
2017-Nov-16 10:30N 49°22' E 000°59'0 0.0
2017-Nov-16 09:59N 49°22' E 000°59'0 0.0
2017-Nov-16 09:30N 49°22' E 000°59'0 0.0
2017-Nov-16 08:59N 49°22' E 000°59'0 0.0
2017-Nov-16 08:29N 49°22' E 000°59'0 0.0
2017-Nov-16 07:59N 49°22' E 000°59'0 0.0
2017-Nov-16 07:28N 49°22' E 000°59'0 0.0
2017-Nov-16 06:58N 49°22' E 000°59'0 0.0
2017-Nov-16 06:28N 49°22' E 000°59'0 0.0
2017-Nov-16 05:58N 49°22' E 000°59'0 0.0
2017-Nov-16 05:30N 49°22' E 000°59'0 0.0
2017-Nov-16 05:00N 49°22' E 000°59'0 0.0
2017-Nov-16 04:30N 49°22' E 000°59'0 0.0
2017-Nov-16 03:59N 49°22' E 000°59'0 0.0
2017-Nov-16 03:29N 49°22' E 000°59'0 0.0
2017-Nov-16 02:56N 49°22' E 000°59'0 0.0
2017-Nov-16 02:28N 49°22' E 000°59'0 0.0
2017-Nov-16 01:58N 49°22' E 000°59'0 0.0
2017-Nov-16 01:28N 49°22' E 000°59'0 0.0
2017-Nov-16 00:58N 49°22' E 000°59'0 0.0
2017-Nov-16 00:31N 49°22' E 000°59'0 0.0
2017-Nov-16 00:00N 49°22' E 000°59'2 4.6
2017-Nov-15 23:30N 49°21' E 000°56'5 9.8
2017-Nov-15 23:00N 49°26' E 000°56'4 7.2
2017-Nov-15 22:31N 49°29' E 000°52'510.0
2017-Nov-15 22:00N 49°24' E 000°51'4 8.1
2017-Nov-15 21:30N 49°27' E 000°49'5 9.3
2017-Nov-15 21:00N 49°31' E 000°45'3 6.5
2017-Nov-15 20:30N 49°30' E 000°40'5 9.1
2017-Nov-15 20:00N 49°26' E 000°38'5 9.7
2017-Nov-15 19:30N 49°29' E 000°31'510.4
2017-Nov-15 19:00N 49°27' E 000°24'611.8
2017-Nov-15 18:30N 49°26' E 000°15'510.8
2017-Nov-15 18:00N 49°26' E 000°07'510.0
2017-Nov-15 17:30N 49°28' W 000°00'5 9.5
2017-Nov-15 17:00N 49°29' W 000°08'1 2.6
2017-Nov-15 16:29N 49°29' W 000°09'0 0.1
2017-Nov-15 15:59N 49°29' W 000°09'0 0.0
2017-Nov-15 15:29N 49°29' W 000°09'0 0.1
2017-Nov-15 14:52N 49°29' W 000°09'0 0.0
2017-Nov-15 14:28N 49°29' W 000°09'0 0.1
2017-Nov-15 13:58N 49°29' W 000°10'0 0.1
2017-Nov-15 13:28N 49°29' W 000°10'0 0.0
2017-Nov-15 13:00N 49°29' W 000°10'0 0.0
2017-Nov-15 12:30N 49°29' W 000°10'0 0.1
2017-Nov-15 12:00N 49°29' W 000°10'0 0.1
2017-Nov-15 11:29N 49°29' W 000°09'0 0.1
2017-Nov-15 10:59N 49°29' W 000°09'0 0.1
2017-Nov-15 10:29N 49°29' W 000°09'0 0.0
2017-Nov-15 09:58N 49°29' W 000°09'0 0.0
2017-Nov-15 09:28N 49°29' W 000°09'  
Track history (hours):
 
Tides and Currents Weather Stations Pressure Air Temp Water Temp Dewpoint Dewpoint Depression Visibility Wind Speed Wind Dir Waves Ship Positions

Ekaterina

Last reported at 2017-Nov-25 09:06 UTC. Time now 2017-Dec-12 12:37 UTC.
Position N 37°09' E 004°20'.
Warning: this ship's position is 17 days out of date.

Length 166 m; draft 9 m.

Type: Cargo ship. MMSI: 215776000.

Date/timePositionNaut miles runAvg speedWind from/ knotsBaromVisibWave heightAir tempDewpointWater temp
2017-Nov-25 09:06N 37°09' E 004°20'212.5
2017-Nov-25 08:59N 37°09' E 004°18'1312.6
2017-Nov-25 07:56N 37°09' E 004°01'512.7
2017-Nov-25 07:30N 37°08' E 003°54'612.4
2017-Nov-25 07:00N 37°07' E 003°47'1912.5
2017-Nov-25 05:28N 37°04' E 003°23'812.8
2017-Nov-25 04:51N 37°03' E 003°13'412.8
2017-Nov-25 04:30N 37°02' E 003°08'613.0
2017-Nov-25 04:01N 37°02' E 002°60'612.7
2017-Nov-25 03:30N 37°00' E 002°52'612.2
2017-Nov-25 03:00N 36°59' E 002°44'712.1
2017-Nov-25 02:24N 36°58' E 002°35'611.9
2017-Nov-25 01:56N 36°57' E 002°28'511.9
2017-Nov-25 01:30N 36°57' E 002°22'712.3
2017-Nov-25 00:58N 36°56' E 002°14'612.1
2017-Nov-25 00:30N 36°55' E 002°07'812.2
2017-Nov-24 23:52N 36°53' E 001°57'412.1
2017-Nov-24 23:30N 36°53' E 001°52'612.3
2017-Nov-24 23:00N 36°52' E 001°44'612.1
2017-Nov-24 22:30N 36°50' E 001°37'911.8
2017-Nov-24 21:44N 36°49' E 001°26'311.7
2017-Nov-24 21:30N 36°49' E 001°22'611.7
2017-Nov-24 20:57N 36°48' E 001°14'511.9
2017-Nov-24 20:30N 36°47' E 001°08'1112.2
2017-Nov-24 19:38N 36°45' E 000°55'212.2
2017-Nov-24 19:30N 36°45' E 000°53'612.3
2017-Nov-24 19:00N 36°44' E 000°45'612.2
2017-Nov-24 18:30N 36°43' E 000°38'612.0
2017-Nov-24 18:00N 36°42' E 000°30'612.0
2017-Nov-24 17:30N 36°41' E 000°23'611.7
2017-Nov-24 17:00N 36°40' E 000°16'611.6
2017-Nov-24 16:30N 36°39' E 000°09'611.7
2017-Nov-24 15:58N 36°38' E 000°01'511.8
2017-Nov-24 15:30N 36°37' W 000°06'611.6
2017-Nov-24 15:00N 36°36' W 000°13'1611.7
2017-Nov-24 13:36N 36°34' W 000°33'111.8
2017-Nov-24 13:29N 36°34' W 000°35'611.9
2017-Nov-24 13:00N 36°33' W 000°42'2612.0
2017-Nov-24 10:53N 36°29' W 001°13'511.6
2017-Nov-24 10:27N 36°28' W 001°19'2812.0
2017-Nov-24 08:07N 36°23' W 001°54'16311.8
2017-Nov-23 18:20N 35°59' W 005°13'412.7
2017-Nov-23 18:01N 35°60' W 005°18'10 9.9
2017-Nov-23 17:03N 36°08' W 005°23'0 5.2
2017-Nov-23 17:00N 36°09' W 005°23'0 0.1
2017-Nov-23 12:23N 36°09' W 005°22'4 1.8
2017-Nov-23 10:22N 36°06' W 005°21'2 3.1
2017-Nov-23 09:53N 36°05' W 005°19'0 1.2
2017-Nov-23 09:29N 36°05' W 005°20'4 8.5
2017-Nov-23 08:58N 36°06' W 005°15'5 0.9
2017-Nov-23 02:57N 36°06' W 005°08'3 5.6
2017-Nov-23 02:26N 36°06' W 005°12'410.2
2017-Nov-23 02:00N 36°03' W 005°16'510.3
2017-Nov-23 01:30N 36°00' W 005°21'5 9.7
2017-Nov-23 01:00N 35°58' W 005°27'  
2017-Nov-17 21:24N 49°25' E 001°01'0 0.0
2017-Nov-17 21:00N 49°25' E 001°01'0 0.0
2017-Nov-17 20:30N 49°25' E 001°01'0 0.0
2017-Nov-17 20:00N 49°25' E 001°01'0 0.0
2017-Nov-17 19:29N 49°25' E 001°01'0 0.0
2017-Nov-17 18:59N 49°25' E 001°01'0 0.0
2017-Nov-17 18:29N 49°25' E 001°01'0 0.0
2017-Nov-17 17:58N 49°25' E 001°01'0 0.0
2017-Nov-17 17:28N 49°25' E 001°01'0 0.0
2017-Nov-17 16:58N 49°25' E 001°01'0 0.0
2017-Nov-17 16:30N 49°25' E 001°01'0 0.0
2017-Nov-17 16:00N 49°25' E 001°01'0 0.0
2017-Nov-17 15:30N 49°25' E 001°01'0 0.0
2017-Nov-17 14:59N 49°25' E 001°01'0 0.0
2017-Nov-17 14:29N 49°25' E 001°01'0 0.0
2017-Nov-17 13:59N 49°25' E 001°01'0 0.0
2017-Nov-17 13:29N 49°25' E 001°01'0 0.0
2017-Nov-17 12:58N 49°25' E 001°01'0 0.0
2017-Nov-17 12:25N 49°25' E 001°01'0 0.0
2017-Nov-17 11:55N 49°25' E 001°01'0 0.0
2017-Nov-17 11:30N 49°25' E 001°01'0 0.0
2017-Nov-17 11:00N 49°25' E 001°01'0 0.0
2017-Nov-17 10:30N 49°25' E 001°01'0 0.0
2017-Nov-17 10:00N 49°25' E 001°01'0 0.0
2017-Nov-17 09:29N 49°25' E 001°01'0 0.0
2017-Nov-17 08:59N 49°25' E 001°01'0 0.0
2017-Nov-17 08:26N 49°25' E 001°01'0 0.0
2017-Nov-17 07:58N 49°25' E 001°01'0 0.0
2017-Nov-17 07:28N 49°25' E 001°01'0 0.0
2017-Nov-17 06:58N 49°25' E 001°01'0 0.0
2017-Nov-17 06:30N 49°25' E 001°01'0 0.0
2017-Nov-17 06:00N 49°25' E 001°01'0 0.0
2017-Nov-17 05:30N 49°25' E 001°01'0 0.0
2017-Nov-17 05:00N 49°25' E 001°01'0 0.0
2017-Nov-17 04:29N 49°25' E 001°01'0 0.0
2017-Nov-17 03:59N 49°25' E 001°01'0 0.0
2017-Nov-17 03:29N 49°25' E 001°01'0 0.0
2017-Nov-17 02:58N 49°25' E 001°01'0 0.0
2017-Nov-17 02:28N 49°25' E 001°01'0 0.0
2017-Nov-17 01:58N 49°25' E 001°01'0 0.0
2017-Nov-17 01:30N 49°25' E 001°01'0 0.0
2017-Nov-17 01:00N 49°25' E 001°01'0 0.0
2017-Nov-17 00:30N 49°25' E 001°01'0 0.0
2017-Nov-17 00:00N 49°25' E 001°01'0 0.0
2017-Nov-16 23:29N 49°25' E 001°01'0 0.0
2017-Nov-16 22:59N 49°25' E 001°01'0 0.8
2017-Nov-16 22:30N 49°25' E 001°01'1 1.4
2017-Nov-16 22:00N 49°26' E 001°02'4 7.3
2017-Nov-16 21:30N 49°22' E 000°60'1 1.4
2017-Nov-16 20:58N 49°22' E 000°59'0 0.0
2017-Nov-16 20:28N 49°22' E 000°59'0 0.0
2017-Nov-16 19:58N 49°22' E 000°59'0 0.0
2017-Nov-16 19:30N 49°22' E 000°59'0 0.0
2017-Nov-16 19:00N 49°22' E 000°59'0 0.0
2017-Nov-16 18:28N 49°22' E 000°59'0 0.0
2017-Nov-16 17:58N 49°22' E 000°59'0 0.0
2017-Nov-16 17:28N 49°22' E 000°59'0 0.0
2017-Nov-16 17:00N 49°22' E 000°59'0 0.0
2017-Nov-16 16:27N 49°22' E 000°59'0 0.0
2017-Nov-16 15:57N 49°22' E 000°59'0 0.0
2017-Nov-16 15:26N 49°22' E 000°59'0 0.0
2017-Nov-16 14:59N 49°22' E 000°59'0 0.0
2017-Nov-16 14:29N 49°22' E 000°59'0 0.0
2017-Nov-16 13:59N 49°22' E 000°59'0 0.0
2017-Nov-16 13:28N 49°22' E 000°59'0 0.0
2017-Nov-16 12:58N 49°22' E 000°59'0 0.0
2017-Nov-16 12:28N 49°22' E 000°59'0 0.0
2017-Nov-16 12:00N 49°22' E 000°59'0 0.0
2017-Nov-16 11:30N 49°22' E 000°59'0 0.0
2017-Nov-16 11:00N 49°22' E 000°59'0 0.0
2017-Nov-16 10:30N 49°22' E 000°59'0 0.0
2017-Nov-16 09:59N 49°22' E 000°59'0 0.0
2017-Nov-16 09:30N 49°22' E 000°59'0 0.0
2017-Nov-16 08:59N 49°22' E 000°59'0 0.0
2017-Nov-16 08:29N 49°22' E 000°59'0 0.0
2017-Nov-16 07:59N 49°22' E 000°59'0 0.0
2017-Nov-16 07:28N 49°22' E 000°59'0 0.0
2017-Nov-16 06:58N 49°22' E 000°59'0 0.0
2017-Nov-16 06:28N 49°22' E 000°59'0 0.0
2017-Nov-16 05:58N 49°22' E 000°59'0 0.0
2017-Nov-16 05:30N 49°22' E 000°59'0 0.0
2017-Nov-16 05:00N 49°22' E 000°59'0 0.0
2017-Nov-16 04:30N 49°22' E 000°59'0 0.0
2017-Nov-16 03:59N 49°22' E 000°59'0 0.0
2017-Nov-16 03:29N 49°22' E 000°59'0 0.0
2017-Nov-16 02:56N 49°22' E 000°59'0 0.0
2017-Nov-16 02:28N 49°22' E 000°59'0 0.0
2017-Nov-16 01:58N 49°22' E 000°59'0 0.0
2017-Nov-16 01:28N 49°22' E 000°59'0 0.0
2017-Nov-16 00:58N 49°22' E 000°59'0 0.0
2017-Nov-16 00:31N 49°22' E 000°59'0 0.0
2017-Nov-16 00:00N 49°22' E 000°59'2 4.6
2017-Nov-15 23:30N 49°21' E 000°56'5 9.8
2017-Nov-15 23:00N 49°26' E 000°56'4 7.2
2017-Nov-15 22:31N 49°29' E 000°52'510.0
2017-Nov-15 22:00N 49°24' E 000°51'4 8.1
2017-Nov-15 21:30N 49°27' E 000°49'5 9.3
2017-Nov-15 21:00N 49°31' E 000°45'3 6.5
2017-Nov-15 20:30N 49°30' E 000°40'5 9.1
2017-Nov-15 20:00N 49°26' E 000°38'5 9.7
2017-Nov-15 19:30N 49°29' E 000°31'510.4
2017-Nov-15 19:00N 49°27' E 000°24'611.8
2017-Nov-15 18:30N 49°26' E 000°15'510.8
2017-Nov-15 18:00N 49°26' E 000°07'510.0
2017-Nov-15 17:30N 49°28' W 000°00'5 9.5
2017-Nov-15 17:00N 49°29' W 000°08'1 2.6
2017-Nov-15 16:29N 49°29' W 000°09'0 0.1
2017-Nov-15 15:59N 49°29' W 000°09'0 0.0
2017-Nov-15 15:29N 49°29' W 000°09'0 0.1
2017-Nov-15 14:52N 49°29' W 000°09'0 0.0
2017-Nov-15 14:28N 49°29' W 000°09'0 0.1
2017-Nov-15 13:58N 49°29' W 000°10'0 0.1
2017-Nov-15 13:28N 49°29' W 000°10'0 0.0
2017-Nov-15 13:00N 49°29' W 000°10'0 0.0
2017-Nov-15 12:30N 49°29' W 000°10'0 0.1
2017-Nov-15 12:00N 49°29' W 000°10'0 0.1
2017-Nov-15 11:29N 49°29' W 000°09'0 0.1
2017-Nov-15 10:59N 49°29' W 000°09'0 0.1
2017-Nov-15 10:29N 49°29' W 000°09'0 0.0
2017-Nov-15 09:58N 49°29' W 000°09'0 0.0
2017-Nov-15 09:28N 49°29' W 000°09'  

Dump ship's entire track history